sensor_id;sensor_type;location;lat;lon;timestamp;pressure;altitude;pressure_sealevel;temperature;humidity
71126;BME280;58785;55.566;38.058;2023-05-24T00:02:07;100309.38;;;16.46;78.79
71126;BME280;58785;55.566;38.058;2023-05-24T00:04:35;100319.25;;;16.54;78.60
71126;BME280;58785;55.566;38.058;2023-05-24T00:07:00;100315.53;;;16.55;78.78
71126;BME280;58785;55.566;38.058;2023-05-24T00:09:29;100321.75;;;16.55;78.78
71126;BME280;58785;55.566;38.058;2023-05-24T00:11:55;100310.16;;;16.55;78.24
71126;BME280;58785;55.566;38.058;2023-05-24T00:14:21;100309.31;;;16.54;78.38
71126;BME280;58785;55.566;38.058;2023-05-24T00:16:47;100311.19;;;16.54;78.17
71126;BME280;58785;55.566;38.058;2023-05-24T00:19:13;100307.47;;;16.55;78.04
71126;BME280;58785;55.566;38.058;2023-05-24T00:21:44;100304.94;;;16.53;78.11
71126;BME280;58785;55.566;38.058;2023-05-24T00:24:10;100295.72;;;16.48;77.74
71126;BME280;58785;55.566;38.058;2023-05-24T00:26:36;100309.47;;;16.53;77.82
71126;BME280;58785;55.566;38.058;2023-05-24T00:29:02;100306.13;;;16.51;77.46
71126;BME280;58785;55.566;38.058;2023-05-24T00:31:28;100300.56;;;16.52;77.67
71126;BME280;58785;55.566;38.058;2023-05-24T00:33:53;100298.88;;;16.51;77.52
71126;BME280;58785;55.566;38.058;2023-05-24T00:36:19;100288.03;;;16.45;77.41
71126;BME280;58785;55.566;38.058;2023-05-24T00:38:45;100291.00;;;16.50;77.34
71126;BME280;58785;55.566;38.058;2023-05-24T00:41:11;100285.16;;;16.46;77.34
71126;BME280;58785;55.566;38.058;2023-05-24T00:43:37;100277.91;;;16.47;77.43
71126;BME280;58785;55.566;38.058;2023-05-24T00:46:17;100280.41;;;16.48;77.21
71126;BME280;58785;55.566;38.058;2023-05-24T00:48:44;100281.25;;;16.49;77.35
71126;BME280;58785;55.566;38.058;2023-05-24T00:51:12;100278.75;;;16.47;77.10
71126;BME280;58785;55.566;38.058;2023-05-24T00:53:39;100279.13;;;16.44;77.40
71126;BME280;58785;55.566;38.058;2023-05-24T00:56:06;100268.22;;;16.37;77.06
71126;BME280;58785;55.566;38.058;2023-05-24T00:58:32;100280.28;;;16.42;77.82
71126;BME280;58785;55.566;38.058;2023-05-24T01:00:59;100269.25;;;16.36;77.57
71126;BME280;58785;55.566;38.058;2023-05-24T01:03:26;100273.16;;;16.34;77.98
71126;BME280;58785;55.566;38.058;2023-05-24T01:05:57;100270.78;;;16.31;77.73
71126;BME280;58785;55.566;38.058;2023-05-24T01:08:42;100271.16;;;16.28;78.07
71126;BME280;58785;55.566;38.058;2023-05-24T01:16:49;100267.50;;;16.21;78.37
71126;BME280;58785;55.566;38.058;2023-05-24T01:19:39;100260.66;;;16.18;78.17
71126;BME280;58785;55.566;38.058;2023-05-24T01:27:33;100252.94;;;16.15;78.43
71126;BME280;58785;55.566;38.058;2023-05-24T01:30:01;100264.81;;;16.21;78.03
71126;BME280;58785;55.566;38.058;2023-05-24T01:32:30;100262.31;;;16.19;78.27
71126;BME280;58785;55.566;38.058;2023-05-24T01:34:56;100259.63;;;16.19;77.96
71126;BME280;58785;55.566;38.058;2023-05-24T01:37:22;100261.94;;;16.22;77.85
71126;BME280;58785;55.566;38.058;2023-05-24T01:39:48;100257.41;;;16.23;77.75
71126;BME280;58785;55.566;38.058;2023-05-24T01:48:15;100264.41;;;16.32;77.01
71126;BME280;58785;55.566;38.058;2023-05-24T01:50:53;100268.94;;;16.31;77.10
71126;BME280;58785;55.566;38.058;2023-05-24T01:53:20;100260.53;;;16.34;76.65
71126;BME280;58785;55.566;38.058;2023-05-24T01:55:48;100264.34;;;16.40;76.80
71126;BME280;58785;55.566;38.058;2023-05-24T01:58:17;100252.34;;;16.43;76.79
71126;BME280;58785;55.566;38.058;2023-05-24T02:00:45;100253.13;;;16.51;76.75
71126;BME280;58785;55.566;38.058;2023-05-24T02:03:13;100252.78;;;16.54;77.17
71126;BME280;58785;55.566;38.058;2023-05-24T02:05:40;100254.25;;;16.57;76.97
71126;BME280;58785;55.566;38.058;2023-05-24T02:08:06;100255.75;;;16.59;77.36
71126;BME280;58785;55.566;38.058;2023-05-24T02:10:31;100244.16;;;16.59;77.34
71126;BME280;58785;55.566;38.058;2023-05-24T02:12:57;100250.81;;;16.63;77.45
71126;BME280;58785;55.566;38.058;2023-05-24T02:15:24;100246.94;;;16.65;77.81
71126;BME280;58785;55.566;38.058;2023-05-24T02:17:55;100251.16;;;16.68;77.98
71126;BME280;58785;55.566;38.058;2023-05-24T02:20:41;100250.78;;;16.71;77.66
71126;BME280;58785;55.566;38.058;2023-05-24T02:23:06;100239.53;;;16.67;77.92
71126;BME280;58785;55.566;38.058;2023-05-24T02:25:32;100257.50;;;16.75;77.88
71126;BME280;58785;55.566;38.058;2023-05-24T02:27:58;100236.81;;;16.67;77.70
71126;BME280;58785;55.566;38.058;2023-05-24T02:30:24;100250.25;;;16.76;77.55
71126;BME280;58785;55.566;38.058;2023-05-24T02:32:51;100237.31;;;16.71;77.47
71126;BME280;58785;55.566;38.058;2023-05-24T02:35:19;100234.91;;;16.76;77.30
71126;BME280;58785;55.566;38.058;2023-05-24T02:37:45;100234.00;;;16.84;76.96
71126;BME280;58785;55.566;38.058;2023-05-24T02:40:11;100231.50;;;16.97;76.46
71126;BME280;58785;55.566;38.058;2023-05-24T02:42:37;100236.50;;;17.15;76.03
71126;BME280;58785;55.566;38.058;2023-05-24T02:45:02;100222.44;;;17.34;75.48
71126;BME280;58785;55.566;38.058;2023-05-24T02:47:30;100231.13;;;17.66;74.77
71126;BME280;58785;55.566;38.058;2023-05-24T02:49:55;100237.66;;;18.14;73.44
71126;BME280;58785;55.566;38.058;2023-05-24T02:52:21;100232.72;;;18.67;72.56
71126;BME280;58785;55.566;38.058;2023-05-24T02:54:48;100215.16;;;19.19;71.31
71126;BME280;58785;55.566;38.058;2023-05-24T02:57:14;100230.75;;;19.65;70.47
71126;BME280;58785;55.566;38.058;2023-05-24T02:59:41;100229.56;;;19.87;69.64
71126;BME280;58785;55.566;38.058;2023-05-24T03:02:08;100222.06;;;19.89;69.01
71126;BME280;58785;55.566;38.058;2023-05-24T03:04:34;100229.56;;;19.87;68.75
71126;BME280;58785;55.566;38.058;2023-05-24T03:07:00;100221.00;;;19.84;68.75
71126;BME280;58785;55.566;38.058;2023-05-24T03:09:27;100222.06;;;19.76;68.33
71126;BME280;58785;55.566;38.058;2023-05-24T03:11:53;100217.47;;;19.76;68.34
71126;BME280;58785;55.566;38.058;2023-05-24T03:14:19;100212.84;;;19.70;67.88
71126;BME280;58785;55.566;38.058;2023-05-24T03:16:47;100202.66;;;19.66;67.84
71126;BME280;58785;55.566;38.058;2023-05-24T03:19:14;100210.78;;;19.72;67.65
71126;BME280;58785;55.566;38.058;2023-05-24T03:21:42;100211.84;;;19.78;67.17
71126;BME280;58785;55.566;38.058;2023-05-24T03:24:08;100220.22;;;19.96;66.63
71126;BME280;58785;55.566;38.058;2023-05-24T03:26:34;100209.63;;;20.28;65.92
71126;BME280;58785;55.566;38.058;2023-05-24T03:29:00;100204.41;;;20.53;65.11
71126;BME280;58785;55.566;38.058;2023-05-24T03:31:26;100202.13;;;20.50;64.70
71126;BME280;58785;55.566;38.058;2023-05-24T03:33:52;100207.94;;;20.40;64.91
71126;BME280;58785;55.566;38.058;2023-05-24T03:36:17;100208.16;;;20.25;64.71
71126;BME280;58785;55.566;38.058;2023-05-24T03:38:45;100218.16;;;20.05;64.88
71126;BME280;58785;55.566;38.058;2023-05-24T03:41:10;100215.81;;;19.89;64.94
71126;BME280;58785;55.566;38.058;2023-05-24T03:43:36;100222.44;;;19.73;65.26
71126;BME280;58785;55.566;38.058;2023-05-24T03:46:02;100220.13;;;19.57;65.20
71126;BME280;58785;55.566;38.058;2023-05-24T03:48:27;100207.31;;;19.44;65.62
71126;BME280;58785;55.566;38.058;2023-05-24T03:50:53;100203.16;;;19.41;65.78
71126;BME280;58785;55.566;38.058;2023-05-24T03:53:20;100193.81;;;19.37;65.81
71126;BME280;58785;55.566;38.058;2023-05-24T03:55:46;100203.78;;;19.37;65.49
71126;BME280;58785;55.566;38.058;2023-05-24T03:58:11;100198.56;;;19.29;65.73
71126;BME280;58785;55.566;38.058;2023-05-24T04:00:37;100201.22;;;19.22;66.08
71126;BME280;58785;55.566;38.058;2023-05-24T04:03:03;100203.06;;;19.15;66.14
71126;BME280;58785;55.566;38.058;2023-05-24T04:05:32;100195.22;;;19.33;65.98
71126;BME280;58785;55.566;38.058;2023-05-24T04:07:58;100197.81;;;19.55;65.28
71126;BME280;58785;55.566;38.058;2023-05-24T04:10:24;100194.31;;;19.61;64.96
71126;BME280;58785;55.566;38.058;2023-05-24T04:12:50;100188.50;;;19.57;65.43
71126;BME280;58785;55.566;38.058;2023-05-24T04:15:15;100194.16;;;19.75;65.14
71126;BME280;58785;55.566;38.058;2023-05-24T04:17:43;100190.66;;;19.95;64.32
71126;BME280;58785;55.566;38.058;2023-05-24T04:20:10;100192.31;;;20.16;63.95
71126;BME280;58785;55.566;38.058;2023-05-24T04:22:36;100195.66;;;20.04;64.18
71126;BME280;58785;55.566;38.058;2023-05-24T04:25:03;100192.47;;;19.81;64.40
71126;BME280;58785;55.566;38.058;2023-05-24T04:27:29;100185.78;;;19.57;64.99
71126;BME280;58785;55.566;38.058;2023-05-24T04:29:55;100187.19;;;19.53;65.05
71126;BME280;58785;55.566;38.058;2023-05-24T04:32:21;100190.44;;;19.96;64.35
71126;BME280;58785;55.566;38.058;2023-05-24T04:34:48;100201.69;;;20.59;62.99
71126;BME280;58785;55.566;38.058;2023-05-24T04:37:15;100205.53;;;21.16;62.17
71126;BME280;58785;55.566;38.058;2023-05-24T04:39:43;100201.44;;;21.52;61.74
71126;BME280;58785;55.566;38.058;2023-05-24T04:42:13;100214.53;;;21.93;60.69
71126;BME280;58785;55.566;38.058;2023-05-24T04:44:41;100214.03;;;22.16;60.13
71126;BME280;58785;55.566;38.058;2023-05-24T04:47:08;100215.00;;;22.22;59.89
71126;BME280;58785;55.566;38.058;2023-05-24T04:49:35;100222.66;;;22.06;60.14
71126;BME280;58785;55.566;38.058;2023-05-24T04:52:00;100224.66;;;21.79;60.91
71126;BME280;58785;55.566;38.058;2023-05-24T04:54:26;100215.06;;;21.45;61.38
71126;BME280;58785;55.566;38.058;2023-05-24T04:56:51;100220.97;;;21.16;61.88
71126;BME280;58785;55.566;38.058;2023-05-24T04:59:17;100216.88;;;20.87;62.35
71126;BME280;58785;55.566;38.058;2023-05-24T05:01:43;100228.16;;;20.71;62.78
71126;BME280;58785;55.566;38.058;2023-05-24T05:04:09;100210.25;;;20.43;63.03
71126;BME280;58785;55.566;38.058;2023-05-24T05:06:35;100223.78;;;20.30;63.50
71126;BME280;58785;55.566;38.058;2023-05-24T05:09:04;100225.00;;;20.14;63.63
71126;BME280;58785;55.566;38.058;2023-05-24T05:11:33;100226.66;;;20.02;63.88
71126;BME280;58785;55.566;38.058;2023-05-24T05:13:58;100227.28;;;19.97;64.18
71126;BME280;58785;55.566;38.058;2023-05-24T05:16:24;100223.53;;;19.92;64.16
71126;BME280;58785;55.566;38.058;2023-05-24T05:18:50;100217.06;;;19.93;64.10
71126;BME280;58785;55.566;38.058;2023-05-24T05:21:16;100228.75;;;20.00;64.27
71126;BME280;58785;55.566;38.058;2023-05-24T05:23:41;100231.25;;;20.08;64.09
71126;BME280;58785;55.566;38.058;2023-05-24T05:26:07;100232.53;;;20.25;63.82
71126;BME280;58785;55.566;38.058;2023-05-24T05:28:33;100233.16;;;20.27;63.67
71126;BME280;58785;55.566;38.058;2023-05-24T05:30:58;100232.31;;;20.27;63.93
71126;BME280;58785;55.566;38.058;2023-05-24T05:33:24;100235.22;;;20.19;64.04
71126;BME280;58785;55.566;38.058;2023-05-24T05:35:50;100240.44;;;20.07;64.31
71126;BME280;58785;55.566;38.058;2023-05-24T05:38:15;100233.13;;;20.01;64.37
71126;BME280;58785;55.566;38.058;2023-05-24T05:40:41;100231.44;;;19.93;64.71
71126;BME280;58785;55.566;38.058;2023-05-24T05:43:07;100233.97;;;19.95;64.65
71126;BME280;58785;55.566;38.058;2023-05-24T05:45:34;100242.50;;;20.05;64.77
71126;BME280;58785;55.566;38.058;2023-05-24T05:47:59;100230.84;;;20.11;64.63
71126;BME280;58785;55.566;38.058;2023-05-24T05:50:25;100227.50;;;20.09;64.19
71126;BME280;58785;55.566;38.058;2023-05-24T05:52:51;100234.38;;;20.05;64.35
71126;BME280;58785;55.566;38.058;2023-05-24T05:55:17;100228.13;;;19.98;64.54
71126;BME280;58785;55.566;38.058;2023-05-24T05:57:43;100226.84;;;19.94;64.86
71126;BME280;58785;55.566;38.058;2023-05-24T06:00:09;100227.72;;;19.94;64.78
71126;BME280;58785;55.566;38.058;2023-05-24T06:02:35;100221.47;;;20.00;64.63
71126;BME280;58785;55.566;38.058;2023-05-24T06:05:01;100218.97;;;20.12;64.19
71126;BME280;58785;55.566;38.058;2023-05-24T06:07:29;100212.09;;;20.23;64.25
71126;BME280;58785;55.566;38.058;2023-05-24T06:09:55;100212.31;;;20.41;63.85
71126;BME280;58785;55.566;38.058;2023-05-24T06:12:21;100215.25;;;20.53;63.44
71126;BME280;58785;55.566;38.058;2023-05-24T06:14:47;100215.25;;;20.66;62.97
71126;BME280;58785;55.566;38.058;2023-05-24T06:17:15;100214.81;;;20.76;62.88
71126;BME280;58785;55.566;38.058;2023-05-24T06:19:43;100212.94;;;20.76;63.17
71126;BME280;58785;55.566;38.058;2023-05-24T06:22:10;100216.88;;;20.80;62.94
71126;BME280;58785;55.566;38.058;2023-05-24T06:24:36;100201.66;;;20.79;62.92
71126;BME280;58785;55.566;38.058;2023-05-24T06:27:04;100208.53;;;20.88;63.13
71126;BME280;58785;55.566;38.058;2023-05-24T06:29:30;100209.31;;;21.02;62.75
71126;BME280;58785;55.566;38.058;2023-05-24T06:31:55;100201.25;;;21.47;62.24
71126;BME280;58785;55.566;38.058;2023-05-24T06:34:21;100196.84;;;21.84;61.24
71126;BME280;58785;55.566;38.058;2023-05-24T06:36:47;100193.13;;;22.17;60.20
71126;BME280;58785;55.566;38.058;2023-05-24T06:39:15;100191.91;;;22.37;60.10
71126;BME280;58785;55.566;38.058;2023-05-24T06:41:42;100198.09;;;22.45;60.12
71126;BME280;58785;55.566;38.058;2023-05-24T06:44:09;100195.22;;;22.40;60.45
71126;BME280;58785;55.566;38.058;2023-05-24T06:46:36;100187.94;;;22.33;59.82
71126;BME280;58785;55.566;38.058;2023-05-24T06:49:02;100196.81;;;22.22;60.40
71126;BME280;58785;55.566;38.058;2023-05-24T06:51:28;100194.81;;;22.11;60.22
71126;BME280;58785;55.566;38.058;2023-05-24T06:53:54;100198.41;;;22.05;60.74
71126;BME280;58785;55.566;38.058;2023-05-24T06:56:20;100199.50;;;21.97;60.47
71126;BME280;58785;55.566;38.058;2023-05-24T06:58:46;100199.53;;;21.91;60.23
71126;BME280;58785;55.566;38.058;2023-05-24T07:01:12;100196.59;;;21.92;60.73
71126;BME280;58785;55.566;38.058;2023-05-24T07:03:39;100198.66;;;21.97;60.61
71126;BME280;58785;55.566;38.058;2023-05-24T07:06:05;100201.53;;;22.02;60.53
71126;BME280;58785;55.566;38.058;2023-05-24T07:08:31;100190.66;;;22.08;60.61
71126;BME280;58785;55.566;38.058;2023-05-24T07:10:56;100200.84;;;22.13;60.46
71126;BME280;58785;55.566;38.058;2023-05-24T07:13:23;100198.56;;;22.17;60.12
71126;BME280;58785;55.566;38.058;2023-05-24T07:15:48;100194.59;;;22.13;60.08
71126;BME280;58785;55.566;38.058;2023-05-24T07:18:14;100203.56;;;22.13;60.16
71126;BME280;58785;55.566;38.058;2023-05-24T07:20:40;100189.63;;;22.09;60.18
71126;BME280;58785;55.566;38.058;2023-05-24T07:23:06;100202.94;;;22.18;60.01
71126;BME280;58785;55.566;38.058;2023-05-24T07:25:32;100206.69;;;22.17;60.14
71126;BME280;58785;55.566;38.058;2023-05-24T07:28:01;100203.78;;;22.12;60.47
71126;BME280;58785;55.566;38.058;2023-05-24T07:30:27;100194.44;;;22.07;60.30
71126;BME280;58785;55.566;38.058;2023-05-24T07:32:53;100209.06;;;22.06;60.51
71126;BME280;58785;55.566;38.058;2023-05-24T07:35:19;100211.41;;;21.96;60.64
71126;BME280;58785;55.566;38.058;2023-05-24T07:37:45;100201.88;;;21.87;60.66
71126;BME280;58785;55.566;38.058;2023-05-24T07:40:12;100204.63;;;21.80;61.26
71126;BME280;58785;55.566;38.058;2023-05-24T07:42:38;100203.34;;;21.83;61.23
71126;BME280;58785;55.566;38.058;2023-05-24T07:45:05;100205.88;;;21.78;61.57
71126;BME280;58785;55.566;38.058;2023-05-24T07:47:32;100205.53;;;21.68;61.66
71126;BME280;58785;55.566;38.058;2023-05-24T07:49:58;100207.44;;;21.61;62.11
71126;BME280;58785;55.566;38.058;2023-05-24T07:52:24;100204.75;;;21.54;62.19
71126;BME280;58785;55.566;38.058;2023-05-24T07:54:50;100207.53;;;21.47;62.49
71126;BME280;58785;55.566;38.058;2023-05-24T07:57:18;100207.16;;;21.37;62.75
71126;BME280;58785;55.566;38.058;2023-05-24T07:59:44;100196.75;;;21.28;63.01
71126;BME280;58785;55.566;38.058;2023-05-24T08:02:10;100204.22;;;21.32;63.20
71126;BME280;58785;55.566;38.058;2023-05-24T08:04:36;100204.00;;;21.34;63.38
71126;BME280;58785;55.566;38.058;2023-05-24T08:07:02;100211.75;;;21.37;63.25
71126;BME280;58785;55.566;38.058;2023-05-24T08:09:29;100216.94;;;21.38;63.34
71126;BME280;58785;55.566;38.058;2023-05-24T08:12:03;100206.53;;;21.35;63.33
71126;BME280;58785;55.566;38.058;2023-05-24T08:14:29;100203.56;;;21.43;63.03
71126;BME280;58785;55.566;38.058;2023-05-24T08:16:55;100207.06;;;21.57;63.04
71126;BME280;58785;55.566;38.058;2023-05-24T08:19:21;100206.38;;;21.68;63.37
71126;BME280;58785;55.566;38.058;2023-05-24T08:21:48;100208.59;;;21.78;63.15
71126;BME280;58785;55.566;38.058;2023-05-24T08:24:14;100216.84;;;21.96;62.43
71126;BME280;58785;55.566;38.058;2023-05-24T08:26:39;100213.22;;;22.09;62.32
71126;BME280;58785;55.566;38.058;2023-05-24T08:29:05;100210.19;;;22.24;61.90
71126;BME280;58785;55.566;38.058;2023-05-24T08:31:31;100205.91;;;22.34;61.43
71126;BME280;58785;55.566;38.058;2023-05-24T08:34:00;100217.28;;;22.50;61.17
71126;BME280;58785;55.566;38.058;2023-05-24T08:36:27;100213.84;;;22.61;60.98
71126;BME280;58785;55.566;38.058;2023-05-24T08:38:52;100211.66;;;22.70;60.25
71126;BME280;58785;55.566;38.058;2023-05-24T08:41:18;100200.84;;;22.88;60.77
71126;BME280;58785;55.566;38.058;2023-05-24T08:43:45;100212.16;;;23.21;60.33
71126;BME280;58785;55.566;38.058;2023-05-24T08:46:11;100204.59;;;23.42;60.05
71126;BME280;58785;55.566;38.058;2023-05-24T08:48:46;100204.94;;;23.64;59.43
71126;BME280;58785;55.566;38.058;2023-05-24T08:51:16;100202.97;;;23.71;59.68
71126;BME280;58785;55.566;38.058;2023-05-24T08:53:43;100199.09;;;23.78;59.26
71126;BME280;58785;55.566;38.058;2023-05-24T08:56:15;100207.06;;;23.92;59.53
71126;BME280;58785;55.566;38.058;2023-05-24T08:58:42;100204.72;;;23.95;58.63
71126;BME280;58785;55.566;38.058;2023-05-24T09:01:13;100200.09;;;23.96;58.57
71126;BME280;58785;55.566;38.058;2023-05-24T09:03:39;100195.94;;;24.05;57.83
71126;BME280;58785;55.566;38.058;2023-05-24T09:06:08;100194.78;;;24.13;57.60
71126;BME280;58785;55.566;38.058;2023-05-24T09:08:37;100199.31;;;24.19;57.92
71126;BME280;58785;55.566;38.058;2023-05-24T09:11:04;100193.44;;;24.33;57.68
71126;BME280;58785;55.566;38.058;2023-05-24T09:13:30;100200.19;;;24.43;57.47
71126;BME280;58785;55.566;38.058;2023-05-24T09:15:58;100197.72;;;24.41;56.83
71126;BME280;58785;55.566;38.058;2023-05-24T09:18:24;100194.28;;;24.46;57.05
71126;BME280;58785;55.566;38.058;2023-05-24T09:24:31;100187.88;;;24.63;56.11
71126;BME280;58785;55.566;38.058;2023-05-24T09:27:05;100197.00;;;24.81;55.02
71126;BME280;58785;55.566;38.058;2023-05-24T09:29:34;100195.44;;;24.97;55.75
71126;BME280;58785;55.566;38.058;2023-05-24T09:32:01;100196.28;;;25.09;55.72
71126;BME280;58785;55.566;38.058;2023-05-24T09:34:36;100200.75;;;25.15;55.67
71126;BME280;58785;55.566;38.058;2023-05-24T09:37:02;100200.41;;;25.11;55.51
71126;BME280;58785;55.566;38.058;2023-05-24T09:39:28;100200.91;;;24.97;54.82
71126;BME280;58785;55.566;38.058;2023-05-24T09:41:54;100196.72;;;24.94;54.96
71126;BME280;58785;55.566;38.058;2023-05-24T09:44:24;100197.22;;;25.03;54.74
71126;BME280;58785;55.566;38.058;2023-05-24T09:47:00;100203.50;;;25.03;54.08
71126;BME280;58785;55.566;38.058;2023-05-24T09:49:26;100200.28;;;24.94;54.54
71126;BME280;58785;55.566;38.058;2023-05-24T09:51:52;100205.41;;;24.91;54.28
71126;BME280;58785;55.566;38.058;2023-05-24T09:54:17;100204.22;;;24.87;54.00
71126;BME280;58785;55.566;38.058;2023-05-24T09:56:45;100197.09;;;24.74;54.17
71126;BME280;58785;55.566;38.058;2023-05-24T09:59:10;100205.44;;;24.68;54.32
71126;BME280;58785;55.566;38.058;2023-05-24T10:01:36;100209.22;;;24.67;54.68
71126;BME280;58785;55.566;38.058;2023-05-24T10:04:02;100207.78;;;24.64;54.61
71126;BME280;58785;55.566;38.058;2023-05-24T10:06:32;100207.44;;;24.60;54.96
71126;BME280;58785;55.566;38.058;2023-05-24T10:09:02;100209.00;;;24.56;55.25
71126;BME280;58785;55.566;38.058;2023-05-24T10:11:34;100206.97;;;24.52;55.64
71126;BME280;58785;55.566;38.058;2023-05-24T10:14:03;100215.72;;;24.54;55.96
71126;BME280;58785;55.566;38.058;2023-05-24T10:16:30;100209.69;;;24.52;55.60
71126;BME280;58785;55.566;38.058;2023-05-24T10:18:56;100210.06;;;24.55;55.58
71126;BME280;58785;55.566;38.058;2023-05-24T10:36:59;100228.06;;;24.91;55.48
71126;BME280;58785;55.566;38.058;2023-05-24T10:39:26;100228.16;;;24.85;55.49
71126;BME280;58785;55.566;38.058;2023-05-24T10:41:55;100233.63;;;24.85;55.52
71126;BME280;58785;55.566;38.058;2023-05-24T10:44:21;100227.56;;;24.94;55.43
71126;BME280;58785;55.566;38.058;2023-05-24T10:47:12;100236.25;;;25.03;55.15
71126;BME280;58785;55.566;38.058;2023-05-24T10:49:50;100234.34;;;25.04;54.67
71126;BME280;58785;55.566;38.058;2023-05-24T10:52:17;100227.81;;;24.93;54.83
71126;BME280;58785;55.566;38.058;2023-05-24T10:57:32;100238.03;;;24.74;55.98
71126;BME280;58785;55.566;38.058;2023-05-24T11:03:02;100240.75;;;24.74;55.73
71126;BME280;58785;55.566;38.058;2023-05-24T11:08:34;100244.44;;;24.80;55.40
71126;BME280;58785;55.566;38.058;2023-05-24T11:11:13;100242.88;;;24.84;55.98
71126;BME280;58785;55.566;38.058;2023-05-24T11:13:41;100240.78;;;24.86;56.12
71126;BME280;58785;55.566;38.058;2023-05-24T11:16:07;100244.78;;;24.83;56.10
71126;BME280;58785;55.566;38.058;2023-05-24T11:18:33;100243.03;;;24.77;56.04
71126;BME280;58785;55.566;38.058;2023-05-24T11:21:07;100237.91;;;24.69;55.97
71126;BME280;58785;55.566;38.058;2023-05-24T11:23:34;100236.38;;;24.61;55.75
71126;BME280;58785;55.566;38.058;2023-05-24T11:26:01;100254.88;;;24.59;55.90
71126;BME280;58785;55.566;38.058;2023-05-24T11:28:28;100245.72;;;24.54;56.48
71126;BME280;58785;55.566;38.058;2023-05-24T11:30:54;100246.91;;;24.46;56.95
71126;BME280;58785;55.566;38.058;2023-05-24T11:33:21;100250.81;;;24.39;57.24
71126;BME280;58785;55.566;38.058;2023-05-24T11:35:53;100247.78;;;24.28;57.43
71126;BME280;58785;55.566;38.058;2023-05-24T11:38:20;100251.09;;;24.19;57.47
71126;BME280;58785;55.566;38.058;2023-05-24T11:40:48;100250.34;;;24.12;57.87
71126;BME280;58785;55.566;38.058;2023-05-24T11:43:21;100247.13;;;24.03;57.77
71126;BME280;58785;55.566;38.058;2023-05-24T11:45:48;100247.91;;;23.92;58.47
71126;BME280;58785;55.566;38.058;2023-05-24T11:48:15;100249.06;;;23.84;58.35
71126;BME280;58785;55.566;38.058;2023-05-24T11:50:43;100253.31;;;23.80;58.47
71126;BME280;58785;55.566;38.058;2023-05-24T11:53:13;100251.50;;;23.74;58.73
71126;BME280;58785;55.566;38.058;2023-05-24T11:55:40;100255.78;;;23.70;58.58
71126;BME280;58785;55.566;38.058;2023-05-24T11:58:36;100253.75;;;23.65;58.70
71126;BME280;58785;55.566;38.058;2023-05-24T12:01:22;100244.72;;;23.65;58.93
71126;BME280;58785;55.566;38.058;2023-05-24T12:03:47;100252.81;;;23.71;58.79
71126;BME280;58785;55.566;38.058;2023-05-24T12:06:13;100251.91;;;23.77;58.71
71126;BME280;58785;55.566;38.058;2023-05-24T12:08:39;100252.25;;;23.81;58.60
71126;BME280;58785;55.566;38.058;2023-05-24T12:11:04;100244.44;;;23.85;58.77
71126;BME280;58785;55.566;38.058;2023-05-24T12:13:30;100245.91;;;23.87;58.22
71126;BME280;58785;55.566;38.058;2023-05-24T12:15:56;100244.59;;;23.90;58.42
71126;BME280;58785;55.566;38.058;2023-05-24T12:18:24;100242.63;;;23.97;58.37
71126;BME280;58785;55.566;38.058;2023-05-24T12:20:51;100237.53;;;24.00;58.03
71126;BME280;58785;55.566;38.058;2023-05-24T12:23:20;100235.78;;;24.06;57.90
71126;BME280;58785;55.566;38.058;2023-05-24T12:25:47;100227.38;;;24.07;57.74
71126;BME280;58785;55.566;38.058;2023-05-24T12:28:18;100227.16;;;24.21;57.46
71126;BME280;58785;55.566;38.058;2023-05-24T12:30:44;100231.06;;;24.25;57.47
71126;BME280;58785;55.566;38.058;2023-05-24T12:33:11;100233.94;;;24.30;57.71
71126;BME280;58785;55.566;38.058;2023-05-24T12:35:40;100228.47;;;24.30;57.09
71126;BME280;58785;55.566;38.058;2023-05-24T12:38:08;100237.13;;;24.27;57.08
71126;BME280;58785;55.566;38.058;2023-05-24T12:40:41;100232.13;;;24.24;57.20
71126;BME280;58785;55.566;38.058;2023-05-24T12:43:09;100238.66;;;24.23;57.33
71126;BME280;58785;55.566;38.058;2023-05-24T12:45:35;100234.41;;;24.27;57.33
71126;BME280;58785;55.566;38.058;2023-05-24T12:48:02;100235.75;;;24.36;57.47
71126;BME280;58785;55.566;38.058;2023-05-24T12:50:29;100233.03;;;24.48;57.23
71126;BME280;58785;55.566;38.058;2023-05-24T12:52:56;100226.19;;;24.57;57.34
71126;BME280;58785;55.566;38.058;2023-05-24T12:55:24;100227.94;;;24.63;56.48
71126;BME280;58785;55.566;38.058;2023-05-24T12:57:52;100227.94;;;24.63;56.74
71126;BME280;58785;55.566;38.058;2023-05-24T13:00:21;100225.94;;;24.70;56.04
71126;BME280;58785;55.566;38.058;2023-05-24T13:02:48;100224.28;;;24.69;56.17
71126;BME280;58785;55.566;38.058;2023-05-24T13:05:14;100224.97;;;24.53;56.30
71126;BME280;58785;55.566;38.058;2023-05-24T13:07:44;100234.13;;;24.47;56.75
71126;BME280;58785;55.566;38.058;2023-05-24T13:10:11;100221.66;;;24.39;56.59
71126;BME280;58785;55.566;38.058;2023-05-24T13:12:37;100231.34;;;24.35;56.74
71126;BME280;58785;55.566;38.058;2023-05-24T13:15:04;100234.50;;;24.20;57.08
71126;BME280;58785;55.566;38.058;2023-05-24T13:17:31;100227.72;;;24.11;56.93
71126;BME280;58785;55.566;38.058;2023-05-24T13:20:01;100232.81;;;24.07;57.25
71126;BME280;58785;55.566;38.058;2023-05-24T13:22:32;100238.94;;;24.03;57.15
71126;BME280;58785;55.566;38.058;2023-05-24T13:24:58;100229.72;;;24.04;56.82
71126;BME280;58785;55.566;38.058;2023-05-24T13:27:24;100224.00;;;23.94;57.08